createdAt,value
2019-04-25T00:01:12.909Z,10.43
2019-04-25T00:05:21.180Z,10.23
2019-04-25T00:09:31.820Z,13.57
2019-04-25T00:13:39.746Z,9.50
2019-04-25T02:04:23.856Z,10.77
2019-04-25T02:08:31.500Z,10.13
2019-04-25T02:12:44.530Z,9.43
2019-04-25T02:16:53.086Z,8.00
2019-04-25T02:21:04.136Z,11.73
2019-04-25T02:25:13.189Z,8.73
2019-04-25T02:29:21.232Z,10.63
2019-04-25T02:33:28.942Z,8.67
2019-04-25T02:37:37.162Z,8.03
2019-04-25T02:41:44.881Z,6.23
2019-04-25T02:46:11.074Z,6.77
2019-04-25T02:50:36.554Z,6.87
2019-04-25T02:54:44.955Z,10.13
2019-04-25T02:58:54.323Z,10.10
2019-04-25T03:03:03.427Z,10.57
2019-04-25T03:07:16.873Z,9.93
2019-04-25T03:11:21.413Z,10.60
2019-04-25T03:15:29.333Z,12.43
2019-04-25T03:19:59.900Z,14.37
2019-04-25T03:24:12.447Z,16.40
2019-04-25T03:28:18.249Z,12.60
2019-04-25T03:32:28.370Z,11.60
2019-04-25T03:36:35.424Z,13.00
2019-04-25T03:40:43.969Z,14.87
2019-04-25T03:44:51.755Z,13.03
2019-04-25T03:48:59.895Z,17.13
2019-04-25T03:53:07.963Z,20.67
2019-04-25T03:57:17.314Z,16.23
2019-04-25T04:01:26.350Z,13.93
2019-04-25T04:05:34.579Z,18.53
2019-04-25T04:09:43.510Z,16.67
2019-04-25T04:13:51.529Z,24.80
2019-04-25T04:18:10.691Z,21.10
2019-04-25T04:22:26.369Z,21.30
2019-04-25T04:26:34.614Z,18.40
2019-04-25T04:30:43.567Z,14.20
2019-04-25T04:34:53.613Z,15.07
2019-04-25T04:39:01.157Z,14.73
2019-04-25T04:43:11.677Z,19.50
2019-04-25T04:47:19.940Z,21.20
2019-04-25T04:51:27.667Z,16.93
2019-04-25T04:55:36.724Z,16.53
2019-04-25T04:59:44.375Z,16.37
2019-04-25T05:04:05.340Z,16.83
2019-04-25T05:08:25.057Z,12.07
2019-04-25T05:12:33.944Z,17.73
2019-04-25T05:16:43.242Z,15.63
2019-04-25T05:20:51.181Z,12.30
2019-04-25T05:24:58.971Z,10.90
2019-04-25T05:29:06.802Z,11.97
2019-04-25T05:33:18.424Z,8.57
2019-04-25T05:37:26.486Z,11.47
2019-04-25T05:41:40.179Z,9.83
2019-04-25T05:45:48.099Z,13.93
2019-04-25T05:49:56.086Z,16.67
2019-04-25T05:54:05.605Z,18.93
2019-04-25T05:58:13.836Z,13.47
2019-04-25T06:02:21.794Z,71.67
2019-04-25T06:06:30.013Z,20.63
2019-04-25T06:10:56.489Z,11.70
2019-04-25T06:15:04.759Z,9.20
2019-04-25T06:19:37.166Z,12.00
2019-04-25T06:24:07.068Z,19.67
2019-04-25T06:28:18.138Z,9.70
2019-04-25T06:32:25.827Z,13.33
2019-04-25T06:36:35.249Z,11.23
2019-04-25T06:40:43.834Z,11.07
2019-04-25T06:44:59.666Z,14.40
2019-04-25T06:49:25.486Z,11.47
2019-04-25T06:53:34.636Z,9.77
2019-04-25T06:57:44.167Z,10.03
2019-04-25T07:01:52.005Z,13.93
2019-04-25T07:05:59.895Z,12.70
2019-04-25T07:10:08.234Z,12.27
2019-04-25T07:14:17.225Z,9.23
2019-04-25T07:18:30.219Z,11.37
2019-04-25T07:22:35.409Z,10.87
2019-04-25T07:27:03.756Z,11.00
2019-04-25T07:31:25.279Z,9.03
2019-04-25T07:35:33.756Z,10.13
2019-04-25T07:39:44.150Z,10.03
2019-04-25T07:43:53.331Z,7.27
2019-04-25T07:48:01.705Z,16.83
2019-04-25T07:52:11.539Z,10.07
2019-04-25T07:56:19.079Z,10.73
2019-04-25T08:00:27.918Z,12.13
2019-04-25T08:04:36.994Z,9.50
2019-04-25T08:08:45.278Z,6.17
2019-04-25T08:12:53.639Z,9.93
2019-04-25T08:17:03.730Z,8.27
2019-04-25T08:21:11.788Z,9.93
2019-04-25T08:25:19.891Z,11.23
2019-04-25T08:29:27.833Z,11.07
2019-04-25T08:33:35.813Z,9.90
2019-04-25T08:37:44.076Z,8.83
2019-04-25T08:41:53.747Z,10.73
2019-04-25T08:46:01.408Z,9.57
2019-04-25T08:50:28.769Z,11.57
2019-04-25T08:54:50.904Z,9.03
2019-04-25T08:59:17.833Z,8.00
2019-04-25T09:03:30.518Z,6.93
2019-04-25T09:07:39.119Z,7.93
2019-04-25T09:11:48.346Z,7.63
2019-04-25T09:15:56.174Z,8.57
2019-04-25T09:20:04.607Z,5.73
2019-04-25T09:24:13.400Z,7.30
2019-04-25T09:28:21.252Z,9.33
2019-04-25T09:32:29.355Z,6.87
2019-04-25T09:36:37.682Z,10.17
2019-04-25T09:40:46.652Z,7.47
2019-04-25T09:45:20.100Z,7.63
2019-04-25T09:49:33.854Z,5.40
2019-04-25T09:53:49.601Z,7.03
2019-04-25T09:58:01.056Z,6.53
2019-04-25T10:02:09.857Z,6.37
2019-04-25T10:06:19.947Z,7.07
2019-04-25T10:10:28.286Z,7.90
2019-04-25T10:15:08.356Z,7.77
2019-04-25T10:19:16.470Z,8.90
2019-04-25T10:23:24.585Z,4.87
2019-04-25T10:27:32.414Z,6.80
2019-04-25T10:31:40.726Z,7.10
2019-04-25T10:35:53.873Z,5.27
2019-04-25T10:39:58.396Z,6.83
2019-04-25T10:44:06.505Z,7.53
2019-04-25T10:48:14.314Z,6.37
2019-04-25T10:52:23.317Z,5.80
2019-04-25T10:56:31.059Z,7.47
2019-04-25T11:00:42.205Z,4.30
2019-04-25T11:04:55.610Z,4.93
2019-04-25T11:09:03.551Z,11.10
2019-04-25T11:13:14.365Z,6.63
2019-04-25T11:17:24.094Z,6.77
2019-04-25T11:21:33.290Z,10.33
2019-04-25T11:25:42.948Z,11.73
2019-04-25T11:29:51.473Z,10.60
2019-04-25T11:33:59.785Z,11.90
2019-04-25T11:38:09.659Z,10.77
2019-04-25T11:42:17.547Z,13.33
2019-04-25T11:46:25.676Z,7.67
2019-04-25T11:50:36.907Z,11.07
2019-04-25T11:54:45.739Z,9.77
2019-04-25T11:58:54.211Z,10.13
2019-04-25T12:03:04.037Z,8.10
2019-04-25T12:07:11.782Z,7.70
2019-04-25T12:11:19.741Z,8.37
2019-04-25T12:15:27.866Z,10.60
2019-04-25T12:19:38.080Z,8.47
2019-04-25T12:23:47.858Z,9.63
2019-04-25T12:27:56.358Z,12.27
2019-04-25T12:32:04.371Z,12.73
2019-04-25T12:36:13.615Z,10.03
2019-04-25T12:40:21.406Z,12.27
2019-04-25T12:44:53.940Z,8.97
2019-04-25T12:49:01.845Z,7.97
2019-04-25T12:53:09.542Z,5.27
2019-04-25T12:57:18.235Z,5.03
2019-04-25T13:01:26.043Z,9.17
2019-04-25T13:05:34.743Z,5.90
2019-04-25T13:09:42.729Z,11.50
2019-04-25T13:13:51.153Z,9.17
2019-04-25T13:17:59.023Z,9.63
2019-04-25T13:22:08.141Z,8.00
2019-04-25T13:26:18.261Z,7.67
2019-04-25T13:31:05.374Z,12.40
2019-04-25T13:35:10.838Z,7.47
2019-04-25T13:39:20.015Z,16.00
2019-04-25T13:43:27.927Z,13.50
2019-04-25T13:47:35.702Z,9.47
2019-04-25T13:51:43.621Z,11.33
2019-04-25T13:55:51.861Z,6.63
2019-04-25T13:59:59.668Z,12.23
2019-04-25T14:04:09.539Z,8.43
2019-04-25T14:08:18.489Z,6.37
2019-04-25T14:12:28.907Z,8.10
2019-04-25T14:16:48.105Z,7.80
2019-04-25T14:21:00.830Z,8.10
2019-04-25T14:25:08.814Z,11.40
2019-04-25T14:29:16.869Z,9.83
2019-04-25T14:33:26.228Z,16.30
2019-04-25T14:37:39.453Z,11.80
2019-04-25T14:41:44.087Z,8.67
2019-04-25T14:45:52.392Z,11.27
2019-04-25T14:50:00.460Z,9.30
2019-04-25T14:54:13.780Z,16.47
2019-04-25T14:58:23.016Z,8.30
2019-04-25T15:02:34.232Z,8.87
2019-04-25T15:06:42.560Z,7.73
2019-04-25T15:10:50.659Z,12.80
2019-04-25T15:14:59.351Z,12.20
2019-04-25T15:19:07.804Z,15.10
2019-04-25T15:23:15.567Z,12.03
2019-04-25T15:27:24.114Z,12.87
2019-04-25T15:31:32.903Z,11.50
2019-04-25T15:35:46.418Z,13.63
2019-04-25T15:39:59.883Z,15.43
2019-04-25T15:44:26.670Z,19.47
2019-04-25T15:48:34.936Z,13.27
2019-04-25T15:52:44.889Z,17.47
2019-04-25T15:56:52.631Z,14.33
2019-04-25T16:01:00.714Z,20.23
2019-04-25T16:05:09.656Z,17.67
2019-04-25T16:09:18.431Z,18.77
2019-04-25T16:13:26.972Z,11.80
2019-04-25T16:17:35.617Z,12.67
2019-04-25T16:21:43.882Z,19.47
2019-04-25T16:25:51.915Z,17.10
2019-04-25T16:30:00.074Z,16.23
2019-04-25T16:34:08.249Z,16.60
2019-04-25T16:38:16.411Z,14.37
2019-04-25T16:42:25.033Z,18.17
2019-04-25T16:46:34.197Z,11.23
2019-04-25T16:50:42.352Z,17.00
2019-04-25T16:54:52.579Z,13.90
2019-04-25T16:59:01.348Z,19.30
2019-04-25T17:03:10.128Z,17.73
2019-04-25T17:07:18.065Z,25.83
2019-04-25T17:11:26.916Z,33.03
2019-04-25T17:16:04.279Z,29.03
2019-04-25T17:20:34.674Z,70.83
2019-04-25T17:24:42.766Z,67.47
2019-04-25T17:28:52.199Z,70.93
2019-04-25T17:33:25.575Z,25.10
2019-04-25T17:37:40.754Z,47.17
2019-04-25T17:41:50.767Z,25.00
2019-04-25T17:45:59.046Z,29.20
2019-04-25T17:50:07.514Z,21.87
2019-04-25T17:54:15.301Z,23.27
2019-04-25T17:58:23.441Z,26.03
2019-04-25T18:02:31.341Z,16.93
2019-04-25T18:06:40.002Z,21.57
2019-04-25T18:10:47.981Z,23.23
2019-04-25T18:14:57.257Z,21.83
2019-04-25T18:19:18.742Z,19.27
2019-04-25T18:23:43.999Z,21.93
2019-04-25T18:28:16.819Z,25.43
2019-04-25T18:32:26.843Z,27.27
2019-04-25T18:36:52.430Z,29.73
2019-04-25T18:41:14.371Z,29.70
2019-04-25T18:45:26.416Z,24.07
2019-04-25T18:49:33.946Z,22.60
2019-04-25T18:54:16.414Z,26.07
2019-04-25T18:58:42.038Z,31.57
2019-04-25T19:03:26.881Z,43.23
2019-04-25T19:07:35.728Z,53.00
2019-04-25T19:11:43.775Z,23.70
2019-04-25T19:15:51.611Z,15.43
2019-04-25T19:19:59.215Z,16.37
2019-04-25T19:24:07.137Z,18.60
2019-04-25T19:28:15.213Z,19.67
2019-04-25T19:32:25.038Z,15.47
2019-04-25T19:36:32.796Z,13.93
2019-04-25T19:40:55.269Z,16.37
2019-04-25T19:45:03.635Z,25.13
2019-04-25T19:49:11.369Z,27.07
2019-04-25T19:53:19.601Z,23.73
2019-04-25T19:57:27.477Z,33.40
2019-04-25T20:01:35.321Z,31.57
2019-04-25T20:06:07.589Z,32.37
2019-04-25T20:10:28.561Z,33.33
2019-04-25T20:14:36.526Z,22.83
2019-04-25T20:18:45.639Z,18.23
2019-04-25T20:22:54.543Z,16.23
2019-04-25T20:27:03.456Z,17.63
2019-04-25T20:31:11.368Z,23.70
2019-04-25T20:35:19.268Z,32.83
2019-04-25T20:39:27.843Z,28.43
2019-04-25T20:43:36.628Z,23.00
2019-04-25T20:47:44.336Z,24.77
2019-04-25T20:51:52.636Z,21.37
2019-04-25T20:56:00.977Z,24.00
2019-04-25T21:00:09.976Z,19.93
2019-04-25T21:04:35.838Z,21.47
2019-04-25T21:08:43.765Z,32.53
2019-04-25T21:12:51.829Z,28.67
2019-04-25T21:17:03.934Z,23.10
2019-04-25T21:21:11.710Z,25.23
2019-04-25T21:25:19.518Z,24.27
2019-04-25T21:29:27.319Z,24.47
2019-04-25T21:33:35.248Z,21.63
2019-04-25T21:37:44.162Z,23.90
2019-04-25T21:42:02.086Z,25.90
2019-04-25T21:46:10.130Z,21.93
2019-04-25T21:50:18.335Z,21.70
2019-04-25T21:54:26.583Z,21.07
2019-04-25T21:58:34.785Z,22.73
2019-04-25T22:02:43.742Z,21.57
2019-04-25T22:06:52.852Z,20.07
2019-04-25T22:11:01.507Z,24.27
2019-04-25T22:15:12.205Z,24.87
2019-04-25T22:19:20.070Z,20.20
2019-04-25T22:23:28.102Z,23.33
2019-04-25T22:27:37.209Z,22.57
2019-04-25T22:31:52.508Z,27.60
2019-04-25T22:36:13.513Z,25.37
2019-04-25T22:40:21.520Z,25.20
2019-04-25T22:44:29.628Z,23.03
2019-04-25T22:48:50.292Z,17.53
2019-04-25T22:52:58.092Z,17.73
2019-04-25T22:57:06.374Z,12.47
2019-04-25T23:01:36.532Z,12.60
2019-04-25T23:05:48.836Z,16.63
2019-04-25T23:09:56.672Z,16.40
2019-04-25T23:14:05.300Z,13.73
2019-04-25T23:18:14.028Z,9.93
2019-04-25T23:22:21.748Z,11.17
2019-04-25T23:26:52.183Z,11.87
2019-04-25T23:31:10.188Z,8.47
2019-04-25T23:35:25.396Z,9.43
2019-04-25T23:39:27.995Z,10.70
2019-04-25T23:43:35.898Z,9.87
2019-04-25T23:47:44.542Z,12.13
2019-04-25T23:51:52.865Z,10.80
2019-04-25T23:56:00.771Z,12.30
